Time;durP1;ratioP1;P1;durP2;ratioP2;P2;SDS_P1;SDS_P2;PMS_P1;PMS_P2;Temp;Humidity;BMP_temperature;BMP_pressure;BME280_temperature;BME280_humidity;BME280_pressure;Samples;Min_cycle;Max_cycle;Signal;HPM_P1;HPM_P2
2022/05/27 00:02:26;;;;;;;1.93;1.57;;;;;;;;;;4970639;28;20216;-39
2022/05/27 00:04:53;;;;;;;2.30;1.50;;;;;;;;;;4988856;28;20212;-32
2022/05/27 00:07:20;;;;;;;1.57;1.30;;;;;;;;;;4982063;28;20231;-39
2022/05/27 00:09:47;;;;;;;3.37;1.60;;;;;;;;;;4990535;28;20210;-40
2022/05/27 00:12:14;;;;;;;1.33;1.23;;;;;;;;;;4985246;28;20222;-35
2022/05/27 00:14:41;;;;;;;1.50;1.40;;;;;;;;;;4979796;28;20211;-35
2022/05/27 00:17:10;;;;;;;3.17;1.50;;;;;;;;;;4983515;28;20226;-39
2022/05/27 00:19:37;;;;;;;2.37;1.37;;;;;;;;;;4971280;28;20216;-37
2022/05/27 00:24:32;;;;;;;1.10;1.10;;;;;;;;;;4987478;28;20223;-40
2022/05/27 00:27:01;;;;;;;1.47;1.33;;;;;;;;;;4987968;28;20227;-43
2022/05/27 00:29:28;;;;;;;1.27;1.17;;;;;;;;;;4970337;28;20205;-42
2022/05/27 00:31:55;;;;;;;1.60;1.50;;;;;;;;;;4989691;28;20218;-40
2022/05/27 00:34:24;;;;;;;3.03;1.20;;;;;;;;;;4984586;28;20240;-37
2022/05/27 00:36:51;;;;;;;4.07;1.40;;;;;;;;;;4989648;28;20220;-39
2022/05/27 00:39:18;;;;;;;1.33;1.23;;;;;;;;;;4990278;28;20220;-38
2022/05/27 00:41:45;;;;;;;1.50;1.30;;;;;;;;;;4984983;28;20215;-37
2022/05/27 00:44:12;;;;;;;1.50;1.40;;;;;;;;;;4975237;28;20211;-39
2022/05/27 00:46:41;;;;;;;2.13;1.13;;;;;;;;;;4987146;28;20255;-43
2022/05/27 00:49:11;;;;;;;1.37;1.20;;;;;;;;;;4974632;28;20208;-36
2022/05/27 00:51:44;;;;;;;1.90;1.43;;;;;;;;;;4981209;28;20235;-41
2022/05/27 00:54:13;;;;;;;1.50;1.23;;;;;;;;;;4993807;28;20208;-38
2022/05/27 00:56:42;;;;;;;1.50;1.40;;;;;;;;;;4989932;28;20230;-36
2022/05/27 00:59:11;;;;;;;1.47;1.37;;;;;;;;;;4982299;28;20204;-43
2022/05/27 01:01:38;;;;;;;1.57;1.47;;;;;;;;;;4983138;28;20206;-41
2022/05/27 01:04:05;;;;;;;1.43;1.33;;;;;;;;;;4977242;28;20204;-41
2022/05/27 01:06:32;;;;;;;3.57;1.53;;;;;;;;;;4981619;28;20244;-36
2022/05/27 01:09:01;;;;;;;3.43;1.50;;;;;;;;;;4993233;28;20200;-33
2022/05/27 01:11:35;;;;;;;1.10;1.10;;;;;;;;;;4993811;28;20207;-35
2022/05/27 01:14:14;;;;;;;1.80;1.30;;;;;;;;;;4974464;28;20207;-38
2022/05/27 01:16:46;;;;;;;1.40;1.30;;;;;;;;;;4983574;28;20220;-38
2022/05/27 01:22:24;;;;;;;1.20;1.10;;;;;;;;;;4984263;28;20222;-39
2022/05/27 01:25:10;;;;;;;1.40;1.33;;;;;;;;;;4992504;28;20204;-39
2022/05/27 01:27:46;;;;;;;2.10;1.20;;;;;;;;;;4988236;28;20228;-40
2022/05/27 01:30:23;;;;;;;2.70;1.40;;;;;;;;;;4979467;28;20214;-39
2022/05/27 01:32:54;;;;;;;1.67;1.40;;;;;;;;;;4982577;28;20200;-37
2022/05/27 01:35:25;;;;;;;1.60;1.33;;;;;;;;;;4989845;28;20208;-37
2022/05/27 01:37:54;;;;;;;1.07;1.03;;;;;;;;;;4992790;28;20292;-40
2022/05/27 01:40:26;;;;;;;2.30;1.43;;;;;;;;;;4993302;28;20228;-38
2022/05/27 01:42:57;;;;;;;1.73;1.53;;;;;;;;;;4983234;28;20673;-35
2022/05/27 01:45:29;;;;;;;2.77;1.30;;;;;;;;;;4980345;28;20212;-42
2022/05/27 01:47:59;;;;;;;1.40;1.30;;;;;;;;;;4989846;28;20214;-39
2022/05/27 01:50:31;;;;;;;1.70;1.40;;;;;;;;;;4991204;28;20666;-41
2022/05/27 01:53:00;;;;;;;1.50;1.33;;;;;;;;;;4988099;28;20200;-35
2022/05/27 01:55:30;;;;;;;1.47;1.37;;;;;;;;;;4995953;28;20369;-39
2022/05/27 01:58:00;;;;;;;2.10;1.23;;;;;;;;;;4991673;28;20299;-43
2022/05/27 02:00:30;;;;;;;1.93;1.30;;;;;;;;;;4980017;28;20235;-39
2022/05/27 02:03:00;;;;;;;1.50;1.40;;;;;;;;;;4974564;28;20213;-35
2022/05/27 02:05:28;;;;;;;2.07;1.23;;;;;;;;;;4984332;28;20219;-34
2022/05/27 02:07:58;;;;;;;1.37;1.27;;;;;;;;;;4984290;28;20239;-43
2022/05/27 02:10:27;;;;;;;2.00;1.10;;;;;;;;;;4994314;28;20215;-37
2022/05/27 02:12:56;;;;;;;1.27;1.17;;;;;;;;;;4982672;28;20292;-41
2022/05/27 02:15:27;;;;;;;2.37;1.23;;;;;;;;;;4973020;28;20211;-38
2022/05/27 02:17:59;;;;;;;1.33;1.20;;;;;;;;;;4984726;28;20212;-38
2022/05/27 02:20:29;;;;;;;1.40;1.30;;;;;;;;;;4980398;28;20222;-37
2022/05/27 02:22:58;;;;;;;1.37;1.20;;;;;;;;;;4992178;28;20219;-36
2022/05/27 02:25:27;;;;;;;1.10;1.10;;;;;;;;;;4992750;28;20214;-40
2022/05/27 02:27:56;;;;;;;1.30;1.30;;;;;;;;;;4984033;28;20209;-38
2022/05/27 02:30:29;;;;;;;7.13;1.50;;;;;;;;;;4981536;28;20689;-39
2022/05/27 02:35:42;;;;;;;1.43;1.27;;;;;;;;;;4974141;28;20247;-40
2022/05/27 02:38:10;;;;;;;1.77;1.40;;;;;;;;;;4980801;28;20193;-43
2022/05/27 02:40:41;;;;;;;1.23;1.13;;;;;;;;;;4972912;28;20220;-41
2022/05/27 02:43:12;;;;;;;1.47;1.37;;;;;;;;;;4984386;28;20316;-36
2022/05/27 02:45:42;;;;;;;1.57;1.30;;;;;;;;;;4982834;28;20883;-35
2022/05/27 02:48:16;;;;;;;3.27;1.10;;;;;;;;;;4981782;28;20213;-39
2022/05/27 02:50:45;;;;;;;1.67;1.27;;;;;;;;;;4973353;28;20215;-39
2022/05/27 02:53:18;;;;;;;1.07;1.07;;;;;;;;;;4975855;28;20698;-36
2022/05/27 02:55:50;;;;;;;1.33;1.17;;;;;;;;;;4971692;28;20236;-40
2022/05/27 02:58:17;;;;;;;2.30;1.37;;;;;;;;;;4971247;28;20208;-41
2022/05/27 03:00:46;;;;;;;2.23;1.10;;;;;;;;;;4971677;28;20220;-38
2022/05/27 03:03:14;;;;;;;1.87;1.20;;;;;;;;;;4980594;28;20211;-43
2022/05/27 03:05:53;;;;;;;1.63;0.97;;;;;;;;;;4978569;28;20232;-37
2022/05/27 03:08:23;;;;;;;1.20;1.10;;;;;;;;;;4971443;28;20204;-38
2022/05/27 03:10:58;;;;;;;1.40;1.30;;;;;;;;;;4972345;28;20200;-35
2022/05/27 03:13:30;;;;;;;1.53;1.43;;;;;;;;;;4985208;28;20234;-41
2022/05/27 03:16:05;;;;;;;1.30;1.20;;;;;;;;;;4982917;28;20232;-40
2022/05/27 03:18:38;;;;;;;1.80;1.43;;;;;;;;;;4979981;28;20226;-44
2022/05/27 03:21:10;;;;;;;1.30;1.20;;;;;;;;;;4978161;28;20231;-35
2022/05/27 03:23:51;;;;;;;1.30;1.20;;;;;;;;;;4973315;28;20687;-37
2022/05/27 03:26:22;;;;;;;2.10;1.40;;;;;;;;;;4972786;28;20228;-37
2022/05/27 03:28:55;;;;;;;2.00;1.13;;;;;;;;;;4986730;28;20219;-40
2022/05/27 03:31:27;;;;;;;1.27;1.20;;;;;;;;;;4975422;28;20576;-37
2022/05/27 03:33:58;;;;;;;1.20;1.20;;;;;;;;;;4975399;28;20216;-38
2022/05/27 03:36:33;;;;;;;1.50;1.40;;;;;;;;;;4980654;28;20227;-37
2022/05/27 03:39:02;;;;;;;1.60;1.30;;;;;;;;;;4990522;28;20235;-41
2022/05/27 03:41:31;;;;;;;2.37;1.30;;;;;;;;;;4990687;28;20235;-40
2022/05/27 03:43:58;;;;;;;1.40;1.20;;;;;;;;;;4974769;28;20616;-38
2022/05/27 03:46:31;;;;;;;1.30;1.20;;;;;;;;;;4973589;28;20233;-34
2022/05/27 03:49:00;;;;;;;2.40;1.30;;;;;;;;;;4984561;28;20841;-35
2022/05/27 03:51:29;;;;;;;2.60;1.40;;;;;;;;;;4991260;28;20204;-35
2022/05/27 03:54:05;;;;;;;1.60;1.40;;;;;;;;;;4974779;28;20209;-41
2022/05/27 03:56:33;;;;;;;1.33;1.33;;;;;;;;;;4975970;28;20323;-30
2022/05/27 03:59:00;;;;;;;1.37;1.27;;;;;;;;;;4979049;28;20262;-38
2022/05/27 04:01:29;;;;;;;1.30;1.20;;;;;;;;;;4986180;28;20219;-38
2022/05/27 04:03:57;;;;;;;1.90;1.43;;;;;;;;;;4991910;28;20208;-34
2022/05/27 04:06:25;;;;;;;1.97;1.30;;;;;;;;;;4982774;28;20228;-36
2022/05/27 04:08:52;;;;;;;1.40;1.30;;;;;;;;;;4974212;28;20541;-38
2022/05/27 04:11:20;;;;;;;1.67;1.20;;;;;;;;;;4973615;28;20232;-33
2022/05/27 04:13:47;;;;;;;1.87;1.40;;;;;;;;;;4987308;28;20212;-39
2022/05/27 04:16:15;;;;;;;3.03;1.60;;;;;;;;;;4986816;28;20675;-37
2022/05/27 04:18:42;;;;;;;1.80;1.37;;;;;;;;;;4977390;28;20218;-37
2022/05/27 04:21:09;;;;;;;1.37;1.30;;;;;;;;;;4974294;28;20377;-43
2022/05/27 04:23:38;;;;;;;1.80;1.70;;;;;;;;;;4979198;28;20241;-42
2022/05/27 04:26:05;;;;;;;1.73;1.30;;;;;;;;;;4981833;28;20315;-39
2022/05/27 04:28:33;;;;;;;1.30;1.30;;;;;;;;;;4977626;28;20213;-36
2022/05/27 04:31:00;;;;;;;2.20;1.47;;;;;;;;;;4976440;28;20208;-39
2022/05/27 04:33:28;;;;;;;2.20;1.10;;;;;;;;;;4980812;28;20568;-38
2022/05/27 04:35:56;;;;;;;1.70;1.60;;;;;;;;;;4992282;28;20286;-39
2022/05/27 04:38:23;;;;;;;1.43;1.33;;;;;;;;;;4981382;28;20200;-34
2022/05/27 04:40:51;;;;;;;1.30;1.23;;;;;;;;;;4982992;28;20238;-35
2022/05/27 04:43:18;;;;;;;3.30;1.37;;;;;;;;;;4979780;28;20215;-34
2022/05/27 04:45:46;;;;;;;2.33;1.27;;;;;;;;;;4985953;28;20232;-32
2022/05/27 04:48:14;;;;;;;3.40;1.57;;;;;;;;;;4986126;28;20201;-36
2022/05/27 04:50:41;;;;;;;2.97;1.53;;;;;;;;;;4992072;28;20239;-34
2022/05/27 04:53:09;;;;;;;3.10;1.53;;;;;;;;;;4976529;28;20204;-39
2022/05/27 04:55:36;;;;;;;1.23;1.20;;;;;;;;;;4976637;28;20236;-36
2022/05/27 04:58:05;;;;;;;4.53;1.70;;;;;;;;;;4987810;28;20958;-42
2022/05/27 05:00:33;;;;;;;2.13;1.37;;;;;;;;;;4986961;28;20228;-32
2022/05/27 05:03:01;;;;;;;1.43;1.40;;;;;;;;;;4976791;28;20216;-39
2022/05/27 05:05:29;;;;;;;1.50;1.40;;;;;;;;;;4985790;28;20211;-36
2022/05/27 05:07:59;;;;;;;1.40;1.30;;;;;;;;;;4991049;28;20299;-36
2022/05/27 05:10:26;;;;;;;2.70;1.73;;;;;;;;;;4993235;28;20239;-36
2022/05/27 05:12:53;;;;;;;5.57;1.43;;;;;;;;;;4984955;28;20204;-41
2022/05/27 05:15:22;;;;;;;3.10;1.80;;;;;;;;;;4987035;28;20231;-36
2022/05/27 05:17:49;;;;;;;1.73;1.63;;;;;;;;;;4990070;28;20230;-40
2022/05/27 05:20:18;;;;;;;5.20;1.90;;;;;;;;;;4976999;28;20215;-37
2022/05/27 05:22:45;;;;;;;1.57;1.47;;;;;;;;;;4984403;28;20208;-36
2022/05/27 05:25:13;;;;;;;1.93;1.50;;;;;;;;;;4976902;28;20675;-37
2022/05/27 05:27:41;;;;;;;2.60;1.10;;;;;;;;;;4982326;28;20235;-37
2022/05/27 05:30:10;;;;;;;2.60;1.60;;;;;;;;;;4989790;28;20206;-39
2022/05/27 05:32:39;;;;;;;1.53;1.43;;;;;;;;;;4993790;28;20204;-39
2022/05/27 05:35:06;;;;;;;3.13;1.37;;;;;;;;;;4978031;28;20208;-41
2022/05/27 05:37:34;;;;;;;1.43;1.33;;;;;;;;;;4988541;28;20220;-40
2022/05/27 05:40:01;;;;;;;3.00;2.00;;;;;;;;;;4995993;28;20221;-40
2022/05/27 05:42:28;;;;;;;3.20;1.37;;;;;;;;;;4993754;28;20323;-37
2022/05/27 05:44:58;;;;;;;3.30;1.57;;;;;;;;;;4991692;28;20214;-39
2022/05/27 05:47:25;;;;;;;4.93;1.30;;;;;;;;;;4987972;28;20225;-34
2022/05/27 05:49:53;;;;;;;2.23;1.50;;;;;;;;;;4986130;28;20212;-41
2022/05/27 05:52:20;;;;;;;1.90;1.30;;;;;;;;;;4976723;28;20287;-39
2022/05/27 05:54:47;;;;;;;1.60;1.47;;;;;;;;;;4976523;28;20208;-39
2022/05/27 05:57:15;;;;;;;2.20;1.53;;;;;;;;;;4979721;28;20299;-39
2022/05/27 05:59:42;;;;;;;2.33;1.07;;;;;;;;;;4990089;28;20207;-38
2022/05/27 06:02:09;;;;;;;1.70;1.60;;;;;;;;;;4982746;28;20263;-39
2022/05/27 06:04:37;;;;;;;1.70;1.60;;;;;;;;;;4985178;28;20213;-42
2022/05/27 06:07:05;;;;;;;1.57;1.47;;;;;;;;;;4987710;28;20230;-39
2022/05/27 06:09:33;;;;;;;2.30;1.50;;;;;;;;;;4996184;28;20215;-37
2022/05/27 06:12:08;;;;;;;1.87;1.47;;;;;;;;;;4986665;28;20653;-44
2022/05/27 06:14:36;;;;;;;3.40;1.47;;;;;;;;;;4978827;28;20200;-39
2022/05/27 06:17:08;;;;;;;2.53;1.43;;;;;;;;;;4995327;28;20232;-39
2022/05/27 06:19:36;;;;;;;1.77;1.67;;;;;;;;;;4986900;28;20231;-35
2022/05/27 06:22:04;;;;;;;2.20;1.67;;;;;;;;;;4986849;28;20235;-37
2022/05/27 06:24:32;;;;;;;3.57;2.07;;;;;;;;;;4995451;28;20226;-41
2022/05/27 06:34:57;;;;;;;1.50;1.40;;;;;;;;;;4984676;28;20216;-38
2022/05/27 06:37:27;;;;;;;1.83;1.70;;;;;;;;;;4981607;28;20314;-37
2022/05/27 06:39:56;;;;;;;3.63;1.70;;;;;;;;;;4994186;28;20212;-38
2022/05/27 06:42:29;;;;;;;3.47;1.57;;;;;;;;;;4991472;28;20239;-38
2022/05/27 06:44:56;;;;;;;2.87;1.80;;;;;;;;;;4989437;28;20235;-37
2022/05/27 06:47:23;;;;;;;1.83;1.37;;;;;;;;;;4992223;28;20334;-37
2022/05/27 06:49:50;;;;;;;4.93;2.27;;;;;;;;;;4991194;28;20300;-33
2022/05/27 06:52:18;;;;;;;1.90;1.80;;;;;;;;;;4985509;28;20196;-37
2022/05/27 06:54:47;;;;;;;2.03;1.50;;;;;;;;;;4994593;28;20208;-32
2022/05/27 06:57:16;;;;;;;2.20;1.60;;;;;;;;;;4986358;28;20233;-34
2022/05/27 06:59:43;;;;;;;2.73;1.60;;;;;;;;;;4982568;28;20247;-43
2022/05/27 07:02:10;;;;;;;2.17;1.67;;;;;;;;;;4980505;28;20311;-35
2022/05/27 07:04:38;;;;;;;1.30;1.30;;;;;;;;;;4977157;28;20216;-39
2022/05/27 07:07:06;;;;;;;1.20;1.10;;;;;;;;;;4986900;28;20224;-37
2022/05/27 07:09:35;;;;;;;1.70;1.60;;;;;;;;;;4981561;28;20218;-37
2022/05/27 07:12:04;;;;;;;1.90;1.73;;;;;;;;;;4977237;28;20208;-37
2022/05/27 07:14:33;;;;;;;3.27;1.50;;;;;;;;;;4974793;28;20205;-37
2022/05/27 07:17:00;;;;;;;4.07;1.37;;;;;;;;;;4983595;28;20228;-38
2022/05/27 07:19:29;;;;;;;2.47;1.50;;;;;;;;;;4975390;28;20247;-37
2022/05/27 07:21:56;;;;;;;3.03;1.57;;;;;;;;;;4981307;28;20267;-43
2022/05/27 07:24:25;;;;;;;1.73;1.40;;;;;;;;;;4982705;28;20214;-34
2022/05/27 07:26:52;;;;;;;1.00;1.00;;;;;;;;;;4978126;28;20232;-36
2022/05/27 07:29:20;;;;;;;1.80;1.20;;;;;;;;;;4977842;28;20212;-38
2022/05/27 07:31:48;;;;;;;1.63;1.40;;;;;;;;;;4984997;28;20196;-35
2022/05/27 07:34:16;;;;;;;1.40;1.27;;;;;;;;;;4983401;28;20204;-37
2022/05/27 07:36:44;;;;;;;1.97;1.50;;;;;;;;;;4977167;28;20228;-36
2022/05/27 07:39:12;;;;;;;1.50;1.20;;;;;;;;;;4984639;28;20302;-36
2022/05/27 07:41:49;;;;;;;1.80;1.50;;;;;;;;;;4983915;28;20215;-41
2022/05/27 07:44:19;;;;;;;1.00;1.00;;;;;;;;;;4984600;28;20206;-37
2022/05/27 07:46:52;;;;;;;1.30;1.20;;;;;;;;;;4975752;28;20229;-38
2022/05/27 07:49:19;;;;;;;1.67;1.50;;;;;;;;;;4982801;28;20500;-36
2022/05/27 07:51:47;;;;;;;2.30;1.40;;;;;;;;;;4984977;28;20215;-40
2022/05/27 07:54:22;;;;;;;2.00;1.33;;;;;;;;;;4978686;28;20216;-32
2022/05/27 07:56:49;;;;;;;1.43;1.33;;;;;;;;;;4975166;28;20292;-38
2022/05/27 07:59:18;;;;;;;4.70;2.00;;;;;;;;;;4974806;28;20208;-39
2022/05/27 08:01:46;;;;;;;1.67;1.50;;;;;;;;;;4981978;28;20219;-37
2022/05/27 08:04:18;;;;;;;3.90;1.90;;;;;;;;;;4978858;28;20212;-40
2022/05/27 08:06:45;;;;;;;3.57;1.50;;;;;;;;;;4979320;28;20256;-41
2022/05/27 08:09:13;;;;;;;2.60;1.50;;;;;;;;;;4985152;28;20214;-41
2022/05/27 08:11:40;;;;;;;2.30;2.10;;;;;;;;;;4983958;28;20208;-31
2022/05/27 08:14:09;;;;;;;3.30;1.40;;;;;;;;;;4983244;28;20238;-31
2022/05/27 08:16:36;;;;;;;2.43;1.70;;;;;;;;;;4992958;28;20223;-38
2022/05/27 08:19:04;;;;;;;3.53;1.50;;;;;;;;;;4982948;28;20500;-35
2022/05/27 08:21:36;;;;;;;3.13;1.73;;;;;;;;;;4993084;28;20256;-37
2022/05/27 08:24:03;;;;;;;2.60;1.30;;;;;;;;;;4975590;28;20212;-37
2022/05/27 08:26:44;;;;;;;2.50;1.50;;;;;;;;;;4978490;28;20228;-38
2022/05/27 08:29:16;;;;;;;1.83;1.53;;;;;;;;;;4981996;28;20216;-37
2022/05/27 08:31:47;;;;;;;5.37;1.87;;;;;;;;;;4985702;28;20215;-38
2022/05/27 08:39:47;;;;;;;2.80;1.60;;;;;;;;;;4979863;28;20281;-36
2022/05/27 08:44:47;;;;;;;2.00;1.60;;;;;;;;;;4981249;28;20224;-40
2022/05/27 08:47:21;;;;;;;2.60;1.70;;;;;;;;;;4989238;28;20232;-33
2022/05/27 08:49:49;;;;;;;1.80;1.70;;;;;;;;;;4985187;28;20291;-35
2022/05/27 08:52:24;;;;;;;1.80;1.50;;;;;;;;;;4989674;28;20255;-37
2022/05/27 08:54:53;;;;;;;2.83;1.87;;;;;;;;;;4995493;28;20192;-40
2022/05/27 09:00:07;;;;;;;4.80;1.67;;;;;;;;;;4975806;28;20278;-31
2022/05/27 09:02:36;;;;;;;2.63;1.70;;;;;;;;;;4982780;28;20287;-39
2022/05/27 09:05:08;;;;;;;2.40;1.67;;;;;;;;;;4976251;28;20205;-38
2022/05/27 09:07:42;;;;;;;3.37;1.87;;;;;;;;;;4983046;28;20235;-40
2022/05/27 09:10:11;;;;;;;3.67;1.90;;;;;;;;;;4975343;28;20218;-32
2022/05/27 09:12:56;;;;;;;1.87;1.63;;;;;;;;;;4977375;28;20216;-40
2022/05/27 09:15:28;;;;;;;5.37;1.77;;;;;;;;;;4971982;28;20207;-33
2022/05/27 09:18:04;;;;;;;4.83;1.90;;;;;;;;;;4988111;28;20212;-32
2022/05/27 09:20:46;;;;;;;3.13;1.30;;;;;;;;;;4989930;28;20206;-39
2022/05/27 09:23:22;;;;;;;1.60;1.50;;;;;;;;;;4994072;28;20208;-35
2022/05/27 09:25:53;;;;;;;3.37;1.57;;;;;;;;;;4994755;28;20227;-34
2022/05/27 09:28:27;;;;;;;1.57;1.43;;;;;;;;;;4983611;28;20212;-36
2022/05/27 09:30:55;;;;;;;1.70;1.60;;;;;;;;;;4977484;28;20203;-33
2022/05/27 09:33:26;;;;;;;3.13;1.70;;;;;;;;;;4984240;28;20343;-38
2022/05/27 09:36:00;;;;;;;3.77;1.63;;;;;;;;;;4974234;28;20220;-37
2022/05/27 09:38:30;;;;;;;1.57;1.47;;;;;;;;;;4981784;28;20230;-35
2022/05/27 09:41:01;;;;;;;2.27;1.80;;;;;;;;;;4977023;28;20216;-43
2022/05/27 09:43:31;;;;;;;3.27;1.70;;;;;;;;;;4938986;28;1193588;-32
2022/05/27 09:46:00;;;;;;;1.20;1.13;;;;;;;;;;4987866;28;20227;-32
2022/05/27 09:48:28;;;;;;;1.67;1.47;;;;;;;;;;4980917;28;20217;-45
2022/05/27 09:50:56;;;;;;;1.60;1.50;;;;;;;;;;4986982;28;20216;-37
2022/05/27 09:53:28;;;;;;;3.53;1.50;;;;;;;;;;4980304;28;20201;-39
2022/05/27 09:56:00;;;;;;;3.17;1.13;;;;;;;;;;4976217;28;20256;-35
2022/05/27 09:58:28;;;;;;;2.70;1.50;;;;;;;;;;4987170;28;20235;-34
2022/05/27 10:00:56;;;;;;;3.03;1.30;;;;;;;;;;4983858;28;20215;-40
2022/05/27 10:03:25;;;;;;;1.50;1.40;;;;;;;;;;4975469;28;20232;-39
2022/05/27 10:05:56;;;;;;;1.27;1.17;;;;;;;;;;4989415;28;20236;-37
2022/05/27 10:08:28;;;;;;;3.10;1.30;;;;;;;;;;4982625;28;20255;-33
2022/05/27 10:11:08;;;;;;;1.67;1.20;;;;;;;;;;4995035;28;20285;-37
2022/05/27 10:13:35;;;;;;;2.27;1.50;;;;;;;;;;4990245;28;20215;-40
2022/05/27 10:16:05;;;;;;;1.30;1.20;;;;;;;;;;4990874;28;20224;-38
2022/05/27 10:18:32;;;;;;;2.33;1.23;;;;;;;;;;4984307;28;20212;-36
2022/05/27 10:21:01;;;;;;;1.27;1.17;;;;;;;;;;4984445;28;20216;-38
2022/05/27 10:23:30;;;;;;;3.83;1.30;;;;;;;;;;4982476;28;20223;-35
2022/05/27 10:25:57;;;;;;;1.37;1.20;;;;;;;;;;4993634;28;20310;-39
2022/05/27 10:28:29;;;;;;;1.50;1.30;;;;;;;;;;4978498;28;20208;-40
2022/05/27 10:30:58;;;;;;;1.30;1.23;;;;;;;;;;4987469;28;20229;-40
2022/05/27 10:33:38;;;;;;;4.00;1.30;;;;;;;;;;4979599;28;20203;-39
2022/05/27 10:36:22;;;;;;;5.17;1.20;;;;;;;;;;4986410;28;20268;-42
2022/05/27 10:44:07;;;;;;;1.40;1.30;;;;;;;;;;4989428;28;20224;-30
2022/05/27 10:46:37;;;;;;;2.17;1.30;;;;;;;;;;4994158;28;20253;-32
2022/05/27 10:49:19;;;;;;;2.00;1.30;;;;;;;;;;4986649;28;20307;-34
2022/05/27 10:51:54;;;;;;;2.53;0.90;;;;;;;;;;4985383;28;20212;-33
2022/05/27 10:54:27;;;;;;;2.70;1.10;;;;;;;;;;4984065;28;20217;-32
2022/05/27 11:02:40;;;;;;;1.47;1.10;;;;;;;;;;4975201;28;20230;-30
2022/05/27 11:05:28;;;;;;;2.80;1.27;;;;;;;;;;4985765;28;20207;-30
2022/05/27 11:08:05;;;;;;;2.30;1.17;;;;;;;;;;4969157;28;20216;-30
2022/05/27 11:10:38;;;;;;;1.97;1.00;;;;;;;;;;4981004;28;20219;-32
2022/05/27 11:16:18;;;;;;;1.77;0.93;;;;;;;;;;4955135;28;20218;-32
2022/05/27 11:18:54;;;;;;;2.77;1.00;;;;;;;;;;4952440;28;20212;-30
2022/05/27 11:21:32;;;;;;;1.93;1.10;;;;;;;;;;4965425;28;20209;-29
2022/05/27 11:24:24;;;;;;;2.90;0.90;;;;;;;;;;4970985;28;20311;-29
2022/05/27 11:26:57;;;;;;;1.37;1.10;;;;;;;;;;4987018;28;21644;-32
2022/05/27 11:29:37;;;;;;;1.80;0.90;;;;;;;;;;4985798;28;20290;-33
2022/05/27 11:32:10;;;;;;;1.30;1.17;;;;;;;;;;4990612;28;20218;-34
2022/05/27 11:34:44;;;;;;;1.00;0.97;;;;;;;;;;4981951;28;20291;-29
2022/05/27 11:37:20;;;;;;;1.07;1.07;;;;;;;;;;4983997;28;20228;-29
2022/05/27 11:39:58;;;;;;;1.50;1.00;;;;;;;;;;4982920;28;20204;-33
2022/05/27 11:42:39;;;;;;;1.30;0.93;;;;;;;;;;4975624;28;20228;-29
2022/05/27 11:45:12;;;;;;;1.77;1.20;;;;;;;;;;4975667;28;20210;-31
2022/05/27 11:48:01;;;;;;;0.83;0.83;;;;;;;;;;4979226;28;20278;-33
2022/05/27 11:50:43;;;;;;;1.83;1.07;;;;;;;;;;4977698;28;20220;-29
2022/05/27 11:53:20;;;;;;;0.67;0.67;;;;;;;;;;4970565;28;20209;-30
2022/05/27 11:55:58;;;;;;;1.07;1.00;;;;;;;;;;4978921;28;20263;-32
2022/05/27 11:58:27;;;;;;;1.33;1.00;;;;;;;;;;4971535;28;20236;-30
2022/05/27 12:00:58;;;;;;;1.63;1.03;;;;;;;;;;4978420;28;20205;-30
2022/05/27 12:03:34;;;;;;;3.90;1.30;;;;;;;;;;4982539;28;20226;-31
2022/05/27 12:06:05;;;;;;;1.67;1.00;;;;;;;;;;4983892;28;20291;-33
2022/05/27 12:08:35;;;;;;;0.80;0.80;;;;;;;;;;4974190;28;20205;-30
2022/05/27 12:11:05;;;;;;;2.10;1.00;;;;;;;;;;4971940;28;20223;-31
2022/05/27 12:13:34;;;;;;;3.50;1.20;;;;;;;;;;4969904;28;20201;-32
2022/05/27 12:16:03;;;;;;;3.37;1.20;;;;;;;;;;4987073;28;20232;-34
2022/05/27 12:18:34;;;;;;;5.27;1.17;;;;;;;;;;4980959;28;20251;-31
2022/05/27 12:21:03;;;;;;;2.97;1.00;;;;;;;;;;4970328;28;20218;-31
2022/05/27 12:23:31;;;;;;;0.90;0.90;;;;;;;;;;4986251;28;20224;-31
2022/05/27 12:31:03;;;;;;;2.03;1.00;;;;;;;;;;4976248;28;20221;-43
2022/05/27 12:33:31;;;;;;;1.07;0.80;;;;;;;;;;4973480;28;20221;-41
2022/05/27 12:36:02;;;;;;;1.23;1.13;;;;;;;;;;4989892;28;20229;-36
2022/05/27 12:38:30;;;;;;;1.20;1.10;;;;;;;;;;4974441;28;20203;-40
2022/05/27 12:41:00;;;;;;;1.00;0.90;;;;;;;;;;4970842;28;20221;-39
2022/05/27 12:43:29;;;;;;;0.80;0.80;;;;;;;;;;4975131;28;20245;-39
2022/05/27 12:45:57;;;;;;;1.17;0.90;;;;;;;;;;4981654;28;20737;-36
2022/05/27 12:48:27;;;;;;;2.43;1.60;;;;;;;;;;4986946;28;20642;-34
2022/05/27 12:50:55;;;;;;;1.07;1.00;;;;;;;;;;4992342;28;20215;-38
2022/05/27 12:53:37;;;;;;;2.00;0.90;;;;;;;;;;4987049;28;20207;-36
2022/05/27 13:02:18;;;;;;;1.00;0.97;;;;;;;;;;4977052;28;20251;-35
2022/05/27 13:04:46;;;;;;;1.30;1.10;;;;;;;;;;4977779;28;20229;-37
2022/05/27 13:07:14;;;;;;;1.67;1.10;;;;;;;;;;4979808;28;20230;-35
2022/05/27 13:09:44;;;;;;;0.90;0.90;;;;;;;;;;4978459;28;20220;-39
2022/05/27 13:12:12;;;;;;;2.20;1.03;;;;;;;;;;4990948;28;20201;-40
2022/05/27 13:14:47;;;;;;;1.27;0.80;;;;;;;;;;4981820;28;20211;-42
2022/05/27 13:17:25;;;;;;;2.40;0.97;;;;;;;;;;4976096;28;20247;-41
2022/05/27 13:19:53;;;;;;;1.27;1.00;;;;;;;;;;4985626;28;20214;-38
2022/05/27 13:22:33;;;;;;;0.90;0.90;;;;;;;;;;4974654;28;20202;-37
2022/05/27 13:25:17;;;;;;;1.10;0.93;;;;;;;;;;4993369;28;20274;-39
2022/05/27 13:27:44;;;;;;;2.00;0.77;;;;;;;;;;4990461;28;20204;-42
2022/05/27 13:30:12;;;;;;;0.87;0.87;;;;;;;;;;4992792;28;20230;-42
2022/05/27 13:32:54;;;;;;;1.13;1.03;;;;;;;;;;4980946;28;20212;-39
2022/05/27 13:35:21;;;;;;;2.27;1.00;;;;;;;;;;4973298;28;20557;-42
2022/05/27 13:37:51;;;;;;;0.80;0.80;;;;;;;;;;4972533;28;20671;-39
2022/05/27 13:40:23;;;;;;;1.40;0.90;;;;;;;;;;4974538;28;20219;-39
2022/05/27 13:42:52;;;;;;;3.23;0.90;;;;;;;;;;4977198;28;20200;-37
2022/05/27 13:45:29;;;;;;;0.87;0.87;;;;;;;;;;4987428;28;20243;-36
2022/05/27 13:47:57;;;;;;;1.20;1.00;;;;;;;;;;4979516;28;20232;-40
2022/05/27 13:50:30;;;;;;;1.00;0.90;;;;;;;;;;4977555;28;20201;-38
2022/05/27 13:52:57;;;;;;;2.97;1.00;;;;;;;;;;4978276;28;20212;-41
2022/05/27 13:55:30;;;;;;;2.00;1.00;;;;;;;;;;4994734;28;20204;-39
2022/05/27 13:58:01;;;;;;;0.97;0.97;;;;;;;;;;4989372;28;20858;-39
2022/05/27 14:00:33;;;;;;;2.43;0.87;;;;;;;;;;4974699;28;20260;-38
2022/05/27 14:03:00;;;;;;;1.73;1.10;;;;;;;;;;4972705;28;20213;-41
2022/05/27 14:05:29;;;;;;;3.33;1.10;;;;;;;;;;4980238;28;20213;-35
2022/05/27 14:07:57;;;;;;;1.67;1.20;;;;;;;;;;4982040;28;20271;-40
2022/05/27 14:10:25;;;;;;;1.60;0.97;;;;;;;;;;4973269;28;20204;-41
2022/05/27 14:12:55;;;;;;;1.23;1.10;;;;;;;;;;4990300;28;20200;-36
2022/05/27 14:15:24;;;;;;;2.20;1.00;;;;;;;;;;4980599;28;20220;-43
2022/05/27 14:17:52;;;;;;;0.97;0.97;;;;;;;;;;4981444;28;20262;-44
2022/05/27 14:20:27;;;;;;;3.10;1.00;;;;;;;;;;4987505;28;20226;-43
2022/05/27 14:22:54;;;;;;;1.57;0.90;;;;;;;;;;4981153;28;20208;-39
2022/05/27 14:25:23;;;;;;;1.03;0.93;;;;;;;;;;4972739;28;20295;-38
2022/05/27 14:27:52;;;;;;;2.67;1.03;;;;;;;;;;4972954;28;20219;-41
2022/05/27 14:30:24;;;;;;;3.40;1.23;;;;;;;;;;4972598;28;20222;-42
2022/05/27 14:32:51;;;;;;;1.70;1.10;;;;;;;;;;4972822;28;20213;-37
2022/05/27 14:35:21;;;;;;;0.87;0.87;;;;;;;;;;4983058;28;20211;-38
2022/05/27 14:37:52;;;;;;;1.10;1.10;;;;;;;;;;4988296;28;20385;-37
2022/05/27 14:40:21;;;;;;;1.33;1.23;;;;;;;;;;4972978;28;20225;-44
2022/05/27 14:42:49;;;;;;;2.30;1.17;;;;;;;;;;4991422;28;20224;-43
2022/05/27 14:45:32;;;;;;;2.30;1.27;;;;;;;;;;4973649;28;20257;-40
2022/05/27 14:47:59;;;;;;;1.17;0.90;;;;;;;;;;4979992;28;20275;-38
2022/05/27 14:50:33;;;;;;;4.80;1.00;;;;;;;;;;4989756;28;20210;-39
2022/05/27 14:53:01;;;;;;;2.90;1.00;;;;;;;;;;4974880;28;20211;-38
2022/05/27 14:55:30;;;;;;;1.20;1.10;;;;;;;;;;4971796;28;20197;-35
2022/05/27 14:57:58;;;;;;;2.40;1.23;;;;;;;;;;4984670;28;20221;-39
2022/05/27 15:00:29;;;;;;;2.03;1.20;;;;;;;;;;4982143;28;20299;-42
2022/05/27 15:02:58;;;;;;;1.30;1.20;;;;;;;;;;4970759;28;20295;-36
2022/05/27 15:05:33;;;;;;;0.93;0.87;;;;;;;;;;4974075;28;20235;-39
2022/05/27 15:08:01;;;;;;;2.13;1.13;;;;;;;;;;4975595;28;20211;-39
2022/05/27 15:10:32;;;;;;;1.60;1.23;;;;;;;;;;4990703;28;20205;-41
2022/05/27 15:12:59;;;;;;;3.23;0.97;;;;;;;;;;4982796;28;20216;-42
2022/05/27 15:15:33;;;;;;;1.20;0.80;;;;;;;;;;4973625;28;20207;-40
2022/05/27 15:18:05;;;;;;;0.90;0.90;;;;;;;;;;4972464;28;20219;-41
2022/05/27 15:20:32;;;;;;;0.70;0.70;;;;;;;;;;4970892;28;20231;-41
2022/05/27 15:23:01;;;;;;;1.50;0.90;;;;;;;;;;4979613;28;20208;-42
2022/05/27 15:25:32;;;;;;;1.20;0.80;;;;;;;;;;4979537;28;20228;-39
2022/05/27 15:33:38;;;;;;;1.03;0.70;;;;;;;;;;4972393;28;20231;-39
2022/05/27 15:36:07;;;;;;;0.73;0.63;;;;;;;;;;4970699;28;20224;-43
2022/05/27 15:38:35;;;;;;;2.20;0.70;;;;;;;;;;4987245;28;20239;-40
2022/05/27 15:41:04;;;;;;;0.93;0.80;;;;;;;;;;4988611;28;20207;-39
2022/05/27 15:43:33;;;;;;;2.00;0.90;;;;;;;;;;4988412;28;20203;-39
2022/05/27 15:46:00;;;;;;;0.73;0.63;;;;;;;;;;4986380;28;20320;-41
2022/05/27 15:48:28;;;;;;;5.40;0.90;;;;;;;;;;4970061;28;20214;-41
2022/05/27 15:50:57;;;;;;;0.70;0.70;;;;;;;;;;4978574;28;20292;-39
2022/05/27 15:53:24;;;;;;;1.43;0.60;;;;;;;;;;4986237;28;20210;-42
2022/05/27 15:55:51;;;;;;;1.17;0.80;;;;;;;;;;4990035;28;20227;-40
2022/05/27 15:58:19;;;;;;;0.87;0.87;;;;;;;;;;4980826;28;20220;-38
2022/05/27 16:00:47;;;;;;;1.00;0.83;;;;;;;;;;4970522;28;20212;-43